Time;durP1;ratioP1;P1;durP2;ratioP2;P2;SDS_P1;SDS_P2;PMS_P1;PMS_P2;Temp;Humidity;BMP_temperature;BMP_pressure;BME280_temperature;BME280_humidity;BME280_pressure;Samples;Min_cycle;Max_cycle;Signal;HPM_P1;HPM_P2
2023/09/08 00:02:12;;;;;;;;;24.50;19.25;;;;;-143.90;90.83;75428.59;4891158;28;102208;-74
2023/09/08 00:04:39;;;;;;;;;14.00;14.00;;;;;-143.90;90.65;75426.50;4897000;28;103282;-74
2023/09/08 00:07:06;;;;;;;;;20.75;18.75;;;;;-143.90;90.28;75412.03;4904769;28;105598;-74
2023/09/08 00:09:32;;;;;;;;;28.25;26.25;;;;;-143.90;88.95;75407.91;4906831;28;102149;-75
2023/09/08 00:11:59;;;;;;;;;30.50;29.75;;;;;-143.90;88.72;75405.84;4916822;28;102667;-74
2023/09/08 00:14:26;;;;;;;;;38.75;31.75;;;;;-143.90;89.94;75412.03;4910904;28;102610;-74
2023/09/08 00:16:55;;;;;;;;;37.25;32.00;;;;;-143.90;90.00;75407.91;4903002;28;104192;-74
2023/09/08 00:19:23;;;;;;;;;31.75;30.00;;;;;-143.90;89.99;75409.97;4885127;28;102282;-74
2023/09/08 00:21:50;;;;;;;;;25.75;24.25;;;;;-143.90;90.51;75407.91;4918635;28;102191;-74
2023/09/08 00:24:18;;;;;;;;;26.25;24.25;;;;;-143.90;90.43;75407.91;4932948;28;102510;-74
2023/09/08 00:26:45;;;;;;;;;28.00;25.50;;;;;-143.90;90.72;75403.78;4913566;28;105186;-74
2023/09/08 00:29:11;;;;;;;;;24.00;22.50;;;;;-143.90;90.43;75416.19;4918704;28;102142;-74
2023/09/08 00:31:38;;;;;;;;;30.25;27.75;;;;;-143.90;90.50;75407.91;4935586;28;102545;-74
2023/09/08 00:34:06;;;;;;;;;24.00;20.25;;;;;-143.90;90.62;75405.84;4927230;28;103587;-74
2023/09/08 00:36:33;;;;;;;;;22.50;20.00;;;;;-143.90;90.11;75414.13;4926822;28;104109;-74
2023/09/08 00:39:00;;;;;;;;;21.75;19.00;;;;;-143.90;89.50;75405.84;4931264;28;102343;-74
2023/09/08 00:41:27;;;;;;;;;25.75;22.50;;;;;-143.90;89.94;75403.78;4919673;28;102401;-74
2023/09/08 00:43:54;;;;;;;;;24.00;22.00;;;;;-143.90;89.85;75403.78;4926849;28;103188;-73
2023/09/08 00:46:21;;;;;;;;;20.25;17.25;;;;;-143.90;90.22;75403.78;4923080;28;104310;-73
2023/09/08 00:48:48;;;;;;;;;21.50;19.50;;;;;-143.90;90.24;75409.97;4922506;28;103363;-73
2023/09/08 00:51:14;;;;;;;;;12.75;12.75;;;;;-143.90;90.30;75403.78;4931076;28;102111;-73
2023/09/08 00:53:41;;;;;;;;;13.25;12.00;;;;;-143.90;90.34;75409.97;4940950;28;102615;-73
2023/09/08 00:56:09;;;;;;;;;12.75;11.25;;;;;-143.90;90.74;75416.19;4926698;28;104158;-74
2023/09/08 00:58:36;;;;;;;;;13.50;10.50;;;;;-143.90;91.51;75420.31;4923052;28;102416;-74
2023/09/08 01:01:05;;;;;;;;;10.25;9.50;;;;;-143.90;92.12;75432.72;4941265;28;102472;-74
2023/09/08 01:03:32;;;;;;;;;7.50;7.50;;;;;-143.90;91.35;75430.66;4919784;28;102503;-74
2023/09/08 01:06:00;;;;;;;;;13.50;10.50;;;;;-143.90;91.36;75438.94;4920529;28;108556;-74
2023/09/08 01:08:27;;;;;;;;;6.25;6.25;;;;;-143.90;91.83;75441.00;4922799;28;102937;-74
2023/09/08 01:10:55;;;;;;;;;6.00;5.00;;;;;-143.90;91.32;75447.19;4926619;28;101932;-74
2023/09/08 01:13:21;;;;;;;;;5.00;4.75;;;;;-143.90;91.30;75453.41;4923358;28;102608;-74
2023/09/08 01:15:49;;;;;;;;;8.00;6.75;;;;;-143.90;91.70;75457.53;4920279;28;104176;-74
2023/09/08 01:18:16;;;;;;;;;7.75;7.25;;;;;-143.90;92.45;75472.00;4930024;28;103667;-74
2023/09/08 01:21:14;;;;;;;;;10.75;8.25;;;;;-143.90;93.97;75478.22;4927096;28;102301;-74
2023/09/08 01:23:43;;;;;;;;;9.50;8.50;;;;;-143.90;94.35;75469.94;4929536;28;102299;-74
2023/09/08 01:26:17;;;;;;;;;9.50;9.25;;;;;-143.90;94.18;75465.81;4917760;28;104200;-74
2023/09/08 01:28:45;;;;;;;;;14.75;13.75;;;;;-143.90;93.67;75463.72;4919716;28;102288;-74
2023/09/08 01:31:12;;;;;;;;;14.00;12.00;;;;;-143.90;93.72;75457.53;4927816;28;103915;-74
2023/09/08 01:33:41;;;;;;;;;11.50;9.50;;;;;-143.90;93.67;75455.47;4932483;28;102167;-74
2023/09/08 01:36:09;;;;;;;;;19.25;16.25;;;;;-143.90;92.92;75449.25;4921831;28;104132;-74
2023/09/08 01:38:35;;;;;;;;;15.50;14.50;;;;;-143.90;92.49;75445.13;4925856;28;102744;-74
2023/09/08 01:41:03;;;;;;;;;9.75;9.75;;;;;-143.90;92.58;75445.13;4915248;28;102679;-74
2023/09/08 01:43:29;;;;;;;;;12.00;10.25;;;;;-143.90;92.22;75449.25;4927901;28;102252;-75
2023/09/08 01:45:56;;;;;;;;;9.00;8.75;;;;;-143.90;92.46;75449.25;4941648;28;104102;-75
2023/09/08 01:48:22;;;;;;;;;6.00;6.00;;;;;-143.90;92.69;75451.31;4945294;28;103678;-74
2023/09/08 01:50:49;;;;;;;;;7.50;7.25;;;;;-143.90;92.84;75465.81;4928934;28;102573;-74
2023/09/08 01:53:16;;;;;;;;;7.50;6.25;;;;;-143.90;93.47;75469.94;4930547;28;102463;-74
2023/09/08 01:55:42;;;;;;;;;11.00;9.50;;;;;-143.90;93.32;75486.47;4924934;28;104296;-73
2023/09/08 01:58:09;;;;;;;;;9.00;9.00;;;;;-143.90;94.58;75498.88;4927882;28;102226;-74
2023/09/08 02:00:36;;;;;;;;;13.00;10.50;;;;;-143.90;94.79;75507.16;4923907;28;103507;-74
2023/09/08 02:03:03;;;;;;;;;11.00;9.25;;;;;-143.90;95.97;75507.16;4929020;28;102111;-74
2023/09/08 02:05:30;;;;;;;;;10.25;9.25;;;;;-143.90;96.17;75503.03;4929464;28;104220;-74
2023/09/08 02:07:57;;;;;;;;;9.25;7.00;;;;;-143.90;96.42;75505.09;4922653;28;102245;-74
2023/09/08 02:10:23;;;;;;;;;12.00;9.00;;;;;-143.90;96.04;75503.03;4925273;28;103746;-74
2023/09/08 02:12:50;;;;;;;;;9.00;8.75;;;;;-143.90;96.27;75503.03;4919558;28;102325;-74
2023/09/08 02:15:17;;;;;;;;;6.00;6.00;;;;;-143.90;96.43;75500.94;4927361;28;106368;-74
2023/09/08 02:17:44;;;;;;;;;10.50;7.75;;;;;-143.90;96.11;75500.94;4939775;28;102451;-74
2023/09/08 02:20:11;;;;;;;;;8.75;8.00;;;;;-143.90;95.92;75503.03;4937640;28;102817;-75
2023/09/08 02:22:37;;;;;;;;;9.50;8.75;;;;;-143.90;96.30;75507.16;4899059;28;102210;-74
2023/09/08 02:25:04;;;;;;;;;8.75;7.25;;;;;-143.90;95.98;75503.03;4905486;28;104267;-75
2023/09/08 02:27:31;;;;;;;;;8.50;8.50;;;;;-143.90;95.54;75505.09;4903416;28;102222;-74
2023/09/08 02:29:58;;;;;;;;;8.50;7.50;;;;;-143.90;95.15;75509.22;4905066;28;102075;-74
2023/09/08 02:32:24;;;;;;;;;6.75;6.00;;;;;-143.90;95.41;75507.16;4912536;28;102341;-75
2023/09/08 02:34:52;;;;;;;;;11.75;9.00;;;;;-143.90;95.78;75515.41;4907411;28;104134;-75
2023/09/08 02:37:19;;;;;;;;;10.50;8.75;;;;;-143.90;96.65;75523.69;4892067;28;102070;-75
2023/09/08 02:39:46;;;;;;;;;11.00;9.25;;;;;-143.90;97.81;75529.91;4908307;28;103622;-75
2023/09/08 02:42:12;;;;;;;;;10.50;7.25;;;;;-143.90;97.54;75521.63;4910004;28;102203;-75
2023/09/08 02:44:39;;;;;;;;;9.00;8.00;;;;;-143.90;98.02;75517.50;4904357;28;103806;-75
2023/09/08 02:47:06;;;;;;;;;8.25;8.00;;;;;-143.90;97.20;75513.34;4906637;28;102802;-75
2023/09/08 02:49:33;;;;;;;;;6.00;6.00;;;;;-143.90;97.37;75509.22;4903233;28;102132;-74
2023/09/08 02:51:59;;;;;;;;;8.00;8.00;;;;;-143.90;97.13;75513.34;4907212;28;102416;-74
2023/09/08 02:54:26;;;;;;;;;8.00;7.00;;;;;-143.90;97.31;75519.56;4888039;28;104239;-74
2023/09/08 02:56:53;;;;;;;;;14.25;10.00;;;;;-143.90;97.92;75527.81;4903069;28;102308;-74
2023/09/08 02:59:19;;;;;;;;;11.75;11.00;;;;;-143.90;97.97;75531.97;4901598;28;103436;-74
2023/09/08 03:01:46;;;;;;;;;13.25;11.25;;;;;-143.90;98.86;75527.81;4911005;28;102292;-74
2023/09/08 03:04:13;;;;;;;;;10.50;10.25;;;;;-143.90;98.30;75531.97;4910778;28;103075;-74
2023/09/08 03:06:39;;;;;;;;;11.75;9.50;;;;;-143.90;98.69;75523.69;4904820;28;102359;-74
2023/09/08 03:09:06;;;;;;;;;9.25;6.25;;;;;-143.90;98.50;75519.56;4905226;28;102144;-74
2023/09/08 03:11:32;;;;;;;;;8.50;7.00;;;;;-143.90;98.05;75517.50;4911124;28;102023;-74
2023/09/08 03:13:59;;;;;;;;;7.00;7.00;;;;;-143.90;97.72;75517.50;4903290;28;103576;-74
2023/09/08 03:16:26;;;;;;;;;5.75;5.75;;;;;-143.90;97.58;75509.22;4909235;28;103361;-74
2023/09/08 03:18:53;;;;;;;;;7.75;5.75;;;;;-143.90;96.93;75505.09;4911301;28;102347;-74
2023/09/08 03:21:19;;;;;;;;;4.00;4.00;;;;;-143.90;96.44;75500.94;4905074;28;103752;-74
2023/09/08 03:23:46;;;;;;;;;3.25;2.50;;;;;-143.90;96.24;75513.34;4908567;28;103334;-74
2023/09/08 03:26:13;;;;;;;;;4.00;4.00;;;;;-143.90;95.39;75507.16;4923629;28;102295;-74
2023/09/08 03:28:42;;;;;;;;;4.50;4.25;;;;;-143.90;96.47;75509.22;4913863;28;102091;-74
2023/09/08 03:31:08;;;;;;;;;6.00;5.75;;;;;-143.90;96.86;75515.41;4910668;28;102951;-74
2023/09/08 03:33:35;;;;;;;;;5.50;5.00;;;;;-143.90;97.02;75507.16;4916584;28;103738;-73
2023/09/08 03:36:02;;;;;;;;;4.25;4.25;;;;;-143.90;96.50;75503.03;4923970;28;102473;-74
2023/09/08 03:38:29;;;;;;;;;5.50;5.50;;;;;-143.90;96.76;75505.09;4910992;28;103523;-74
2023/09/08 03:40:56;;;;;;;;;4.25;4.25;;;;;-143.90;96.03;75509.22;4912677;28;102509;-74
2023/09/08 03:43:22;;;;;;;;;9.00;7.00;;;;;-143.90;96.02;75517.50;4911668;28;104229;-74
2023/09/08 03:45:49;;;;;;;;;16.25;13.00;;;;;-143.90;97.41;75529.91;4912865;28;102539;-74
2023/09/08 03:48:16;;;;;;;;;11.50;9.50;;;;;-143.90;97.65;75540.22;4909686;28;101994;-74
2023/09/08 03:50:45;;;;;;;;;11.50;9.75;;;;;-143.90;97.97;75542.31;4914414;28;101957;-73
2023/09/08 03:53:12;;;;;;;;;13.25;9.25;;;;;-143.90;98.03;75536.09;4913856;28;104223;-74
2023/09/08 03:55:39;;;;;;;;;8.25;7.50;;;;;-143.90;97.50;75529.91;4909012;28;102529;-73
2023/09/08 03:58:05;;;;;;;;;8.25;7.75;;;;;-143.90;96.05;75531.97;4914538;28;103555;-72
2023/09/08 04:00:32;;;;;;;;;5.50;5.50;;;;;-143.90;94.46;75536.09;4930218;28;102040;-73
2023/09/08 04:02:59;;;;;;;;;4.25;4.25;;;;;-143.90;92.72;75536.09;4910850;28;105458;-74
2023/09/08 04:05:26;;;;;;;;;4.50;4.50;;;;;-143.90;92.92;75546.44;4910590;28;103926;-73
2023/09/08 04:07:53;;;;;;;;;5.25;5.25;;;;;-143.90;93.50;75548.50;4913623;28;102317;-73
2023/09/08 04:10:19;;;;;;;;;3.50;3.50;;;;;-143.90;93.87;75552.63;4931752;28;102452;-74
2023/09/08 04:12:46;;;;;;;;;5.00;3.50;;;;;-143.90;94.63;75552.63;4913115;28;103329;-75
2023/09/08 04:15:13;;;;;;;;;4.00;3.00;;;;;-143.90;94.25;75552.63;4911249;28;101935;-75
2023/09/08 04:17:39;;;;;;;;;3.00;3.00;;;;;-143.90;93.97;75560.91;4912518;28;102097;-75
2023/09/08 04:20:07;;;;;;;;;4.75;4.00;;;;;-143.90;95.36;75556.78;4911360;28;102241;-76
2023/09/08 04:22:34;;;;;;;;;4.00;4.00;;;;;-143.90;95.47;75554.72;4920451;28;104264;-72
2023/09/08 04:25:01;;;;;;;;;3.75;3.75;;;;;-143.90;94.97;75548.50;4932231;28;102544;-74
2023/09/08 04:27:28;;;;;;;;;4.00;4.00;;;;;-143.90;93.45;75556.78;4912741;28;102711;-74
2023/09/08 04:29:55;;;;;;;;;3.50;3.50;;;;;-143.90;92.75;75556.78;4905891;28;102537;-74
2023/09/08 04:32:22;;;;;;;;;6.25;5.25;;;;;-143.90;92.34;75567.13;4921886;28;103509;-74
2023/09/08 04:34:49;;;;;;;;;5.00;5.00;;;;;-143.90;91.00;75577.44;4911039;28;103541;-75
2023/09/08 04:37:16;;;;;;;;;5.00;4.50;;;;;-143.90;91.39;75575.38;4926603;28;102410;-75
2023/09/08 04:39:43;;;;;;;;;3.50;3.50;;;;;-143.90;91.77;75577.44;4908784;28;102429;-74
2023/09/08 04:42:10;;;;;;;;;3.00;2.75;;;;;-143.90;91.90;75575.38;4920259;28;104118;-75
2023/09/08 04:44:37;;;;;;;;;3.00;3.00;;;;;-143.90;92.20;75565.03;4925650;28;102198;-76
2023/09/08 04:47:04;;;;;;;;;6.25;5.50;;;;;-143.90;91.84;75567.13;4927009;28;102283;-75
2023/09/08 04:49:31;;;;;;;;;5.25;5.00;;;;;-143.90;92.10;75573.31;4933872;28;102969;-75
2023/09/08 04:51:58;;;;;;;;;5.00;4.00;;;;;-143.90;92.33;75579.53;4934128;28;104312;-75
2023/09/08 04:54:27;;;;;;;;;2.00;2.00;;;;;-143.90;92.88;75573.31;4922105;28;103910;-75
2023/09/08 04:56:54;;;;;;;;;5.00;4.75;;;;;-143.90;92.58;75565.03;4926640;28;102308;-75
2023/09/08 04:59:39;;;;;;;;;5.75;5.00;;;;;-143.90;92.69;75567.13;4928141;28;102412;-75
2023/09/08 05:02:06;;;;;;;;;4.50;3.50;;;;;-143.90;92.78;75569.19;4933104;28;104341;-75
2023/09/08 05:04:32;;;;;;;;;4.00;3.50;;;;;-143.90;92.88;75565.03;4914039;28;102154;-74
2023/09/08 05:06:59;;;;;;;;;4.25;3.75;;;;;-143.90;93.36;75560.91;4917308;28;101858;-75
2023/09/08 05:09:25;;;;;;;;;3.25;3.25;;;;;-143.90;93.43;75556.78;4936520;28;103093;-74
2023/09/08 05:11:52;;;;;;;;;4.00;4.00;;;;;-143.90;93.74;75548.50;4918562;28;104130;-73
2023/09/08 05:14:19;;;;;;;;;3.00;3.00;;;;;-143.90;93.79;75542.31;4919331;28;102576;-74
2023/09/08 05:16:46;;;;;;;;;4.00;3.00;;;;;-143.90;93.43;75531.97;4900953;28;102467;-75
2023/09/08 05:19:13;;;;;;;;;4.00;2.75;;;;;-143.90;94.37;75523.69;4929530;28;102599;-75
2023/09/08 05:21:40;;;;;;;;;3.50;3.50;;;;;-143.90;95.47;75519.56;4932074;28;106192;-75
2023/09/08 05:24:07;;;;;;;;;4.25;4.25;;;;;-143.90;95.60;75519.56;4939361;28;102996;-74
2023/09/08 05:26:37;;;;;;;;;4.00;3.25;;;;;-143.90;95.65;75509.22;4918543;28;103760;-75
2023/09/08 05:29:04;;;;;;;;;5.50;4.50;;;;;-143.90;96.41;75494.75;4944596;28;102560;-76
2023/09/08 05:31:31;;;;;;;;;8.00;6.25;;;;;-143.90;97.49;75494.75;4928494;28;104291;-76
2023/09/08 05:33:57;;;;;;;;;8.00;8.00;;;;;-143.90;97.86;75492.69;4929055;28;102099;-75
2023/09/08 05:36:24;;;;;;;;;7.75;7.50;;;;;-143.90;98.04;75474.06;4934292;28;102892;-76
2023/09/08 05:38:50;;;;;;;;;9.75;8.00;;;;;-143.90;97.78;75461.66;4934224;28;102151;-76
2023/09/08 05:41:17;;;;;;;;;6.00;6.00;;;;;-143.90;97.58;75445.13;4931154;28;104016;-75
2023/09/08 05:43:44;;;;;;;;;6.75;6.00;;;;;-143.90;97.09;75420.31;4934574;28;102523;-75
2023/09/08 05:46:11;;;;;;;;;6.00;6.00;;;;;-143.90;96.08;75412.03;4925386;28;102572;-74
2023/09/08 05:48:37;;;;;;;;;5.50;5.50;;;;;-143.90;96.40;75395.50;4932922;28;102191;-75
2023/09/08 05:51:06;;;;;;;;;7.75;7.75;;;;;-143.90;96.08;75370.69;4925171;28;109890;-75
2023/09/08 05:53:35;;;;;;;;;8.50;8.50;;;;;-143.90;95.14;75341.75;4921317;28;102056;-74
2023/09/08 05:56:02;;;;;;;;;9.50;8.00;;;;;-143.90;93.93;75304.53;4948241;28;102434;-75
2023/09/08 05:58:29;;;;;;;;;8.75;7.75;;;;;-143.90;93.18;75265.25;4929769;28;103627;-75
2023/09/08 06:00:56;;;;;;;;;12.00;10.75;;;;;-143.90;92.14;75228.03;4929486;28;104098;-75
2023/09/08 06:03:27;;;;;;;;;14.25;12.75;;;;;-143.90;90.15;75188.75;4929065;28;102133;-75
2023/09/08 06:05:54;;;;;;;;;15.00;13.00;;;;;-143.90;89.35;75159.81;4915583;28;103591;-74
2023/09/08 06:08:20;;;;;;;;;11.00;10.75;;;;;-143.90;87.97;75126.75;4924415;28;102167;-73
2023/09/08 06:10:47;;;;;;;;;13.00;11.00;;;;;-143.90;86.81;75114.34;4928691;28;105055;-72
2023/09/08 06:13:14;;;;;;;;;14.25;14.25;;;;;-143.90;86.76;75085.38;4929251;28;102116;-73
2023/09/08 06:15:40;;;;;;;;;14.00;13.00;;;;;-143.90;85.91;75083.31;4933162;28;102474;-74
2023/09/08 06:18:08;;;;;;;;;19.50;19.25;;;;;-143.90;85.28;75062.66;4935618;28;103148;-73
2023/09/08 06:20:34;;;;;;;;;25.00;23.25;;;;;-143.90;84.17;75044.03;4926408;28;110073;-72
2023/09/08 06:23:01;;;;;;;;;20.00;19.00;;;;;-143.90;84.16;75033.72;4928344;28;103588;-73
2023/09/08 06:25:28;;;;;;;;;24.25;23.00;;;;;-143.90;83.98;74998.56;4915371;28;102090;-75
2023/09/08 06:27:55;;;;;;;;;20.25;19.00;;;;;-143.90;83.71;74940.69;4927035;28;102493;-74
2023/09/08 06:30:22;;;;;;;;;27.50;22.00;;;;;-143.90;79.63;74907.59;4911172;28;103909;-73
2023/09/08 06:32:49;;;;;;;;;19.00;18.50;;;;;-143.90;80.81;74872.47;4920398;28;103603;-73
2023/09/08 06:35:16;;;;;;;;;23.75;22.25;;;;;-143.90;78.68;74833.19;4932370;28;102306;-73
2023/09/08 06:37:46;;;;;;;;;17.25;17.00;;;;;-143.90;77.11;74787.69;4924799;28;102281;-73
2023/09/08 06:40:13;;;;;;;;;15.75;14.50;;;;;-143.90;77.00;74789.78;4924649;28;103795;-73
2023/09/08 06:42:39;;;;;;;;;12.50;12.50;;;;;-143.90;75.51;74777.38;4927340;28;102142;-74
2023/09/08 06:45:07;;;;;;;;;17.00;16.25;;;;;-143.90;77.76;74789.78;4928236;28;101977;-73
2023/09/08 06:47:34;;;;;;;;;15.00;14.00;;;;;-143.90;77.81;74771.16;4929828;28;102114;-74
2023/09/08 06:50:00;;;;;;;;;13.67;13.67;;;;;-143.90;77.33;74731.88;4926360;28;104160;-74
2023/09/08 06:52:27;;;;;;;;;17.00;15.33;;;;;-143.90;77.81;74698.81;4929207;28;102875;-74
2023/09/08 06:54:54;;;;;;;;;10.67;10.67;;;;;-143.90;76.35;74694.69;4933651;28;102320;-74
2023/09/08 06:57:20;;;;;;;;;20.00;17.67;;;;;-143.90;75.50;74684.34;4930024;28;102482;-73
2023/09/08 06:59:47;;;;;;;;;23.50;18.25;;;;;-143.90;73.91;74663.66;4937442;28;104133;-73
2023/09/08 07:02:14;;;;;;;;;18.75;18.75;;;;;-143.90;75.06;74674.00;4929730;28;102081;-73
2023/09/08 07:04:41;;;;;;;;;14.67;14.00;;;;;-143.90;74.84;74643.00;4929105;28;102093;-73
2023/09/08 07:07:08;;;;;;;;;19.00;18.00;;;;;-143.90;74.30;74620.25;4933830;28;102055;-72
2023/09/08 07:09:38;;;;;;;;;18.67;16.67;;;;;-143.90;74.21;74597.53;4935470;28;108778;-73
2023/09/08 07:12:06;;;;;;;;;15.00;14.67;;;;;-143.90;73.60;74578.91;4934877;28;102827;-72
2023/09/08 07:14:33;;;;;;;;;15.00;14.00;;;;;-143.90;72.49;74549.97;4931260;28;102145;-73
2023/09/08 07:16:59;;;;;;;;;13.00;12.33;;;;;-143.90;71.24;74531.38;4935149;28;102528;-73
2023/09/08 07:19:27;;;;;;;;;15.00;14.33;;;;;-143.90;71.71;74521.03;4930999;28;104199;-73
2023/09/08 07:21:54;;;;;;;;;17.00;15.33;;;;;-143.90;71.02;74527.25;4931146;28;102595;-73
2023/09/08 07:24:21;;;;;;;;;16.67;13.33;;;;;-143.90;70.90;74518.97;4944806;28;103977;-73
2023/09/08 07:26:47;;;;;;;;;16.00;14.00;;;;;-143.90;69.27;74492.09;4929036;28;102147;-73
2023/09/08 07:29:14;;;;;;;;;13.00;12.00;;;;;-143.90;69.84;74477.63;4942107;28;104763;-73
2023/09/08 07:31:41;;;;;;;;;12.33;11.00;;;;;-143.90;67.45;74461.09;4941487;28;102346;-75
2023/09/08 07:34:07;;;;;;;;;12.33;12.00;;;;;-143.90;67.39;74452.84;4935336;28;102189;-72
2023/09/08 07:36:36;;;;;;;;;11.00;10.00;;;;;-143.90;66.25;74432.16;4931008;28;102233;-72
2023/09/08 07:39:03;;;;;;;;;15.00;15.00;;;;;-143.90;66.74;74425.97;4931587;28;110796;-73
2023/09/08 07:41:30;;;;;;;;;16.00;13.00;;;;;-143.90;65.51;74415.63;4931870;28;102338;-74
2023/09/08 07:43:57;;;;;;;;;15.33;14.33;;;;;-143.90;66.39;74415.63;4918884;28;102175;-73
2023/09/08 07:46:24;;;;;;;;;10.00;9.00;;;;;-143.90;65.86;74394.94;4930291;28;101923;-73
2023/09/08 07:48:50;;;;;;;;;12.00;12.00;;;;;-143.90;63.31;74382.56;4931594;28;104340;-72
2023/09/08 07:51:17;;;;;;;;;18.00;16.33;;;;;-143.90;65.17;74382.56;4936020;28;102066;-73
2023/09/08 07:53:44;;;;;;;;;13.67;12.67;;;;;-143.90;64.88;74372.22;4935382;28;102404;-73
2023/09/08 07:56:10;;;;;;;;;13.00;12.00;;;;;-143.90;63.03;74345.34;4939572;28;102298;-74
2023/09/08 07:58:39;;;;;;;;;8.00;8.00;;;;;-143.90;65.21;74324.69;4933480;28;103369;-74
2023/09/08 08:01:06;;;;;;;;;7.00;6.67;;;;;-143.90;62.20;74306.06;4930898;28;102036;-72
2023/09/08 08:03:35;;;;;;;;;8.00;8.00;;;;;-143.90;61.89;74287.47;4930533;28;102662;-73
2023/09/08 08:06:02;;;;;;;;;8.00;7.67;;;;;-143.90;62.39;74283.34;4925232;28;103291;-72
2023/09/08 08:08:30;;;;;;;;;8.00;7.67;;;;;-143.90;61.31;74270.94;4931050;28;104212;-73
2023/09/08 08:10:57;;;;;;;;;6.33;6.33;;;;;-143.90;62.46;74258.53;4927179;28;102177;-73
2023/09/08 08:13:23;;;;;;;;;6.67;5.33;;;;;-143.90;61.53;74242.00;4939239;28;104436;-72
2023/09/08 08:15:51;;;;;;;;;5.00;5.00;;;;;-143.90;60.01;74221.31;4935298;28;102494;-73
2023/09/08 08:18:17;;;;;;;;;5.00;5.00;;;;;-143.90;59.77;74208.94;4933035;28;104129;-73
2023/09/08 08:20:45;;;;;;;;;5.00;4.00;;;;;-143.90;60.22;74192.41;4930602;28;102216;-73
2023/09/08 08:23:12;;;;;;;;;5.33;5.33;;;;;-143.90;59.53;74182.06;4928245;28;103035;-73
2023/09/08 08:25:38;;;;;;;;;9.33;8.33;;;;;-143.90;58.84;74184.13;4937097;28;102518;-74
2023/09/08 08:28:05;;;;;;;;;9.00;9.00;;;;;-143.90;58.21;74184.13;4934520;28;109198;-74
2023/09/08 08:30:32;;;;;;;;;15.33;12.00;;;;;-143.90;59.62;74188.25;4925697;28;102161;-73
2023/09/08 08:32:59;;;;;;;;;13.67;12.33;;;;;-143.90;58.85;74177.94;4935346;28;101953;-73
2023/09/08 08:35:26;;;;;;;;;10.67;9.67;;;;;-143.90;57.15;74163.47;4940044;28;102376;-73
2023/09/08 08:37:53;;;;;;;;;8.33;8.00;;;;;-143.90;58.13;74153.13;4937691;28;104202;-73
2023/09/08 08:40:20;;;;;;;;;8.00;8.00;;;;;-143.90;56.21;74149.00;4935321;28;103717;-74
2023/09/08 08:42:46;;;;;;;;;9.67;9.00;;;;;-143.90;57.01;74146.91;4939125;28;102445;-73
2023/09/08 08:45:19;;;;;;;;;9.00;8.00;;;;;-143.90;56.55;74151.06;4934283;28;102246;-72
2023/09/08 08:47:48;;;;;;;;;8.00;7.00;;;;;-143.90;55.24;74130.38;4928051;28;104208;-73
2023/09/08 08:50:17;;;;;;;;;9.00;7.33;;;;;-143.90;55.57;74124.19;4931810;28;102053;-73
2023/09/08 08:52:43;;;;;;;;;7.67;7.67;;;;;-143.90;56.04;74118.00;4937605;28;101941;-73
2023/09/08 08:55:11;;;;;;;;;6.00;5.67;;;;;-143.90;52.98;74109.72;4936316;28;102299;-73
2023/09/08 08:57:39;;;;;;;;;5.67;5.67;;;;;-143.90;54.66;74089.06;4941881;28;104248;-74
2023/09/08 09:00:10;;;;;;;;;9.00;7.00;;;;;-143.90;57.02;74080.78;4935294;28;102159;-74
2023/09/08 09:02:41;;;;;;;;;7.00;7.00;;;;;-143.90;53.58;74070.44;4930352;28;102294;-74
2023/09/08 09:05:15;;;;;;;;;7.00;6.00;;;;;-143.90;54.38;74068.38;4932293;28;102467;-73
2023/09/08 09:07:42;;;;;;;;;6.00;6.00;;;;;-143.90;54.47;74049.78;4934501;28;104090;-72
2023/09/08 09:10:09;;;;;;;;;5.00;5.00;;;;;-143.90;56.00;74037.38;4935693;28;102327;-73
2023/09/08 09:12:38;;;;;;;;;4.67;3.67;;;;;-143.90;53.17;74039.44;4930766;28;102069;-72
2023/09/08 09:15:05;;;;;;;;;5.33;5.00;;;;;-143.90;53.18;74033.25;4935844;28;102459;-73
2023/09/08 09:17:36;;;;;;;;;6.67;6.00;;;;;-143.90;53.19;74022.91;4931092;28;104128;-72
2023/09/08 09:20:17;;;;;;;;;5.00;5.00;;;;;-143.90;52.68;74010.50;4927820;28;102397;-73
2023/09/08 09:22:45;;;;;;;;;5.00;4.00;;;;;-143.90;54.20;74002.25;4910770;28;106271;-73
2023/09/08 09:25:22;;;;;;;;;9.00;8.67;;;;;-143.90;51.56;73993.97;4913515;28;102549;-73
2023/09/08 09:27:52;;;;;;;;;8.00;6.33;;;;;-143.90;50.92;73985.72;4903552;28;104089;-73
2023/09/08 09:30:19;;;;;;;;;11.67;10.67;;;;;-143.90;50.77;73993.97;4897177;28;102117;-74
2023/09/08 09:32:57;;;;;;;;;12.33;11.00;;;;;-143.90;49.18;73993.97;4907236;28;102361;-73
2023/09/08 09:35:40;;;;;;;;;8.33;7.67;;;;;-143.90;49.58;73989.84;4915443;28;102087;-73
2023/09/08 09:38:09;;;;;;;;;7.67;7.00;;;;;-143.90;50.25;73985.72;4913994;28;108995;-73
2023/09/08 09:40:35;;;;;;;;;7.00;7.00;;;;;-143.90;51.26;73979.50;4913628;28;102311;-73
2023/09/08 09:43:04;;;;;;;;;8.00;6.00;;;;;-143.90;50.27;73965.03;4919607;28;101981;-72
2023/09/08 09:45:38;;;;;;;;;4.00;4.00;;;;;-143.90;50.75;73956.78;4916478;28;102365;-72
2023/09/08 09:48:06;;;;;;;;;5.00;5.00;;;;;-143.90;48.76;73956.78;4908128;28;108766;-72
2023/09/08 09:50:41;;;;;;;;;6.00;6.00;;;;;-143.90;47.96;73942.31;4915870;28;102030;-72
2023/09/08 09:53:15;;;;;;;;;9.00;8.00;;;;;-143.90;48.61;73948.50;4906868;28;102130;-73
2023/09/08 09:55:44;;;;;;;;;12.33;11.33;;;;;-143.90;47.69;73962.97;4911531;28;102033;-73
2023/09/08 09:58:12;;;;;;;;;11.67;11.00;;;;;-143.90;47.21;73954.72;4912431;28;104350;-73
2023/09/08 10:00:47;;;;;;;;;12.00;11.67;;;;;-143.90;49.47;73952.63;4918924;28;101948;-73
2023/09/08 10:03:14;;;;;;;;;12.67;10.33;;;;;-143.90;48.08;73944.38;4894019;28;102198;-73
2023/09/08 10:05:41;;;;;;;;;10.33;9.33;;;;;-143.90;47.39;73936.09;4916372;28;102339;-73
2023/09/08 10:08:08;;;;;;;;;12.33;12.33;;;;;-143.90;47.01;73944.38;4903770;28;104028;-73
2023/09/08 10:10:36;;;;;;;;;10.33;10.33;;;;;-143.90;48.45;73934.03;4912763;28;102017;-73
2023/09/08 10:13:06;;;;;;;;;11.33;11.33;;;;;-143.90;46.75;73919.56;4909549;28;102309;-73
2023/09/08 10:15:34;;;;;;;;;7.00;6.33;;;;;-143.90;44.61;73917.50;4915997;28;102380;-72
2023/09/08 10:18:05;;;;;;;;;10.00;10.00;;;;;-143.90;46.69;73934.03;4896264;28;104216;-73
2023/09/08 10:20:34;;;;;;;;;8.00;8.00;;;;;-143.90;46.28;73915.44;4919077;28;102451;-73
2023/09/08 10:23:13;;;;;;;;;8.33;8.00;;;;;-143.90;46.88;73915.44;4936701;28;102041;-73
2023/09/08 10:25:44;;;;;;;;;13.67;13.67;;;;;-143.90;45.48;73944.38;4933739;28;102326;-73
2023/09/08 10:28:13;;;;;;;;;13.00;12.33;;;;;-143.90;46.78;73931.97;4933996;28;104094;-74
2023/09/08 10:30:41;;;;;;;;;14.00;14.00;;;;;-143.90;47.11;73923.72;4930900;28;102368;-74
2023/09/08 10:33:09;;;;;;;;;10.33;10.33;;;;;-143.90;47.07;73903.03;4936061;28;102823;-74
2023/09/08 10:35:36;;;;;;;;;11.00;8.00;;;;;-143.90;48.13;73890.63;4936186;28;102072;-73
2023/09/08 10:38:22;;;;;;;;;10.67;10.00;;;;;-143.90;47.10;73909.25;4926053;28;104313;-73
2023/09/08 10:40:49;;;;;;;;;10.00;9.67;;;;;-143.90;47.47;73892.69;4937236;28;102344;-73
2023/09/08 10:43:17;;;;;;;;;10.00;9.00;;;;;-143.90;45.89;73878.25;4934649;28;102476;-73
2023/09/08 10:45:47;;;;;;;;;8.00;6.33;;;;;-143.90;46.50;73869.97;4937613;28;102577;-73
2023/09/08 10:48:15;;;;;;;;;6.33;6.00;;;;;-143.90;45.54;73859.63;4931781;28;105952;-73
2023/09/08 10:50:43;;;;;;;;;7.67;7.67;;;;;-143.90;46.69;73853.44;4928988;28;102096;-73
2023/09/08 10:53:15;;;;;;;;;11.33;11.33;;;;;-143.90;46.96;73878.25;4924314;28;102380;-73
2023/09/08 10:55:53;;;;;;;;;10.00;10.00;;;;;-143.90;47.77;73888.56;4929856;28;102046;-73
2023/09/08 10:58:42;;;;;;;;;9.00;9.00;;;;;-143.90;46.90;73863.78;4930704;28;109945;-71
2023/09/08 11:01:17;;;;;;;;;7.67;7.00;;;;;-143.90;45.87;73847.25;4933277;28;103909;-72
2023/09/08 11:03:47;;;;;;;;;10.67;10.67;;;;;-143.90;45.98;73849.31;4931896;28;101819;-73
2023/09/08 11:06:19;;;;;;;;;13.00;12.00;;;;;-143.90;46.64;73869.97;4934761;28;102114;-73